createdAt,value
2022-12-28T00:02:20.012Z,2.60
2022-12-28T00:04:48.719Z,2.60
2022-12-28T00:07:16.815Z,2.60
2022-12-28T00:09:44.849Z,2.70
2022-12-28T00:12:14.177Z,2.60
2022-12-28T00:14:42.133Z,2.60
2022-12-28T00:17:10.156Z,2.60
2022-12-28T00:19:38.163Z,2.60
2022-12-28T00:22:06.130Z,2.60
2022-12-28T00:24:34.807Z,2.60
2022-12-28T00:27:02.813Z,2.60
2022-12-28T00:29:32.172Z,2.60
2022-12-28T00:32:00.568Z,2.60
2022-12-28T00:34:28.872Z,2.60
2022-12-28T00:37:10.747Z,2.60
2022-12-28T00:39:41.428Z,2.60
2022-12-28T00:42:09.861Z,2.60
2022-12-28T00:44:39.938Z,2.50
2022-12-28T00:47:09.501Z,2.60
2022-12-28T00:49:40.511Z,2.60
2022-12-28T00:52:08.490Z,2.60
2022-12-28T00:54:36.453Z,2.60
2022-12-28T00:57:04.559Z,2.60
2022-12-28T00:59:34.532Z,2.60
2022-12-28T01:02:03.989Z,2.60
2022-12-28T01:04:32.066Z,2.60
2022-12-28T01:07:00.208Z,2.60
2022-12-28T01:09:28.203Z,2.60
2022-12-28T01:11:56.163Z,2.50
2022-12-28T01:14:24.376Z,2.60
2022-12-28T01:16:52.879Z,2.60
2022-12-28T01:19:25.239Z,2.60
2022-12-28T01:21:57.893Z,2.50
2022-12-28T01:24:25.999Z,2.60
2022-12-28T01:26:55.000Z,2.60
2022-12-28T01:29:22.954Z,2.60
2022-12-28T01:31:51.065Z,2.60
2022-12-28T01:34:19.111Z,2.60
2022-12-28T01:36:49.388Z,2.60
2022-12-28T01:39:17.319Z,2.70
2022-12-28T01:41:45.356Z,2.60
2022-12-28T01:44:41.931Z,2.60
2022-12-28T01:47:14.373Z,2.60
2022-12-28T01:49:48.140Z,2.60
2022-12-28T01:52:23.679Z,2.70
2022-12-28T01:54:55.133Z,2.70
2022-12-28T01:57:27.360Z,2.70
2022-12-28T01:59:58.914Z,2.70
2022-12-28T02:02:27.304Z,2.60
2022-12-28T02:04:55.334Z,2.70
2022-12-28T02:07:33.418Z,2.60
2022-12-28T02:10:41.591Z,2.60
2022-12-28T02:12:49.443Z,2.60
2022-12-28T02:15:22.915Z,2.60
2022-12-28T02:17:51.942Z,2.60
2022-12-28T02:20:20.518Z,2.60
2022-12-28T02:23:24.691Z,2.60
2022-12-28T02:26:32.287Z,2.60
2022-12-28T02:29:27.537Z,2.50
2022-12-28T02:32:02.784Z,2.50
2022-12-28T02:34:40.593Z,2.50
2022-12-28T02:37:14.304Z,2.50
2022-12-28T02:39:47.807Z,2.50
2022-12-28T02:42:17.751Z,2.50
2022-12-28T02:45:04.668Z,2.50
2022-12-28T02:47:49.956Z,2.50
2022-12-28T02:50:18.755Z,2.50
2022-12-28T02:53:18.062Z,2.50
2022-12-28T02:56:10.230Z,2.50
2022-12-28T02:59:11.287Z,2.60
2022-12-28T03:02:08.418Z,2.60
2022-12-28T03:04:47.368Z,2.60
2022-12-28T03:07:39.301Z,2.70
2022-12-28T03:10:15.951Z,2.70
2022-12-28T03:12:51.013Z,2.70
2022-12-28T03:15:30.496Z,2.70
2022-12-28T03:18:24.746Z,2.80
2022-12-28T03:21:12.051Z,2.80
2022-12-28T03:24:01.406Z,2.80
2022-12-28T03:26:51.068Z,2.80
2022-12-28T03:29:39.353Z,2.90
2022-12-28T03:32:08.569Z,2.90
2022-12-28T03:34:39.345Z,2.90
2022-12-28T03:37:13.746Z,2.90
2022-12-28T03:39:46.024Z,3.00
2022-12-28T03:42:36.114Z,3.00
2022-12-28T03:45:10.585Z,3.00
2022-12-28T03:47:41.813Z,2.90
2022-12-28T03:50:15.393Z,2.90
2022-12-28T03:52:43.482Z,2.90
2022-12-28T03:55:14.634Z,3.00
2022-12-28T03:57:42.795Z,3.00
2022-12-28T04:00:16.917Z,2.90
2022-12-28T04:02:44.960Z,3.00
2022-12-28T04:05:15.513Z,2.90
2022-12-28T04:07:44.060Z,2.90
2022-12-28T04:10:13.472Z,3.00
2022-12-28T04:12:42.334Z,3.00
2022-12-28T04:15:33.166Z,2.90
2022-12-28T04:18:02.482Z,2.90
2022-12-28T04:20:31.839Z,2.90
2022-12-28T04:22:59.824Z,2.90
2022-12-28T04:25:28.264Z,2.90
2022-12-28T04:27:56.233Z,2.90
2022-12-28T04:30:42.603Z,3.00
2022-12-28T04:33:10.595Z,3.00
2022-12-28T04:35:40.339Z,2.90
2022-12-28T04:38:08.478Z,2.90
2022-12-28T04:40:36.477Z,3.00
2022-12-28T04:43:04.409Z,3.00
2022-12-28T04:45:32.417Z,2.90
2022-12-28T04:48:00.330Z,2.90
2022-12-28T04:50:28.934Z,2.90
2022-12-28T04:52:59.479Z,2.90
2022-12-28T04:55:32.624Z,2.80
2022-12-28T04:58:01.863Z,2.90
2022-12-28T05:00:29.865Z,2.90
2022-12-28T05:02:59.720Z,2.90
2022-12-28T05:05:27.938Z,2.90
2022-12-28T05:07:56.009Z,2.90
2022-12-28T05:10:25.274Z,3.00
2022-12-28T05:12:53.175Z,3.00
2022-12-28T05:15:21.151Z,3.10
2022-12-28T05:17:49.231Z,3.10
2022-12-28T05:20:18.126Z,3.10
2022-12-28T05:22:46.059Z,3.20
2022-12-28T05:25:13.977Z,3.20
2022-12-28T05:27:43.158Z,3.30
2022-12-28T05:30:12.121Z,3.20
2022-12-28T05:32:40.074Z,3.30
2022-12-28T05:35:09.348Z,3.20
2022-12-28T05:37:37.345Z,3.30
2022-12-28T05:40:07.593Z,3.30
2022-12-28T05:42:36.953Z,3.30
2022-12-28T05:45:07.376Z,3.30
2022-12-28T05:47:35.297Z,3.30
2022-12-28T05:50:03.290Z,3.30
2022-12-28T05:52:32.731Z,3.30
2022-12-28T05:55:00.759Z,3.30
2022-12-28T05:57:28.749Z,3.30
2022-12-28T05:59:56.707Z,3.30
2022-12-28T06:02:27.645Z,3.30
2022-12-28T06:04:55.738Z,3.30
2022-12-28T06:07:23.966Z,3.40
2022-12-28T06:09:51.944Z,3.40
2022-12-28T06:12:19.891Z,3.40
2022-12-28T06:14:47.839Z,3.40
2022-12-28T06:17:16.442Z,3.40
2022-12-28T06:19:45.733Z,3.40
2022-12-28T06:22:13.640Z,3.50
2022-12-28T06:24:41.715Z,3.50
2022-12-28T06:27:09.721Z,3.60
2022-12-28T06:29:37.677Z,3.60
2022-12-28T06:32:06.130Z,3.60
2022-12-28T06:34:34.081Z,3.70
2022-12-28T06:37:04.222Z,3.70
2022-12-28T06:39:32.254Z,3.70
2022-12-28T06:42:00.197Z,3.70
2022-12-28T06:44:28.139Z,3.70
2022-12-28T06:46:56.061Z,3.80
2022-12-28T06:49:24.042Z,3.80
2022-12-28T06:51:52.240Z,3.70
2022-12-28T06:54:23.774Z,3.70
2022-12-28T06:56:51.749Z,3.70
2022-12-28T06:59:19.711Z,3.60
2022-12-28T07:01:47.768Z,3.70
2022-12-28T07:04:15.927Z,3.60
2022-12-28T07:06:45.416Z,3.70
2022-12-28T07:09:14.977Z,3.70
2022-12-28T07:11:44.420Z,3.70
2022-12-28T07:14:12.655Z,3.60
2022-12-28T07:19:07.693Z,3.70
2022-12-28T07:21:38.900Z,3.70
2022-12-28T07:24:07.865Z,3.70
2022-12-28T07:26:37.634Z,3.70
2022-12-28T07:29:08.374Z,3.70
2022-12-28T07:31:44.273Z,3.60
2022-12-28T07:34:13.747Z,3.60
2022-12-28T07:36:41.782Z,3.60
2022-12-28T07:39:13.020Z,3.70
2022-12-28T07:41:45.578Z,3.70
2022-12-28T07:44:18.399Z,3.70
2022-12-28T07:46:46.579Z,3.80
2022-12-28T07:49:32.885Z,3.80
2022-12-28T07:52:03.568Z,3.80
2022-12-28T07:54:31.935Z,3.80
2022-12-28T07:57:44.752Z,3.90
2022-12-28T08:00:15.906Z,3.80
2022-12-28T08:03:03.720Z,3.80
2022-12-28T08:05:44.936Z,3.80
2022-12-28T08:08:13.221Z,3.90
2022-12-28T08:10:41.271Z,3.90
2022-12-28T08:13:38.007Z,4.00
2022-12-28T08:16:51.102Z,4.00
2022-12-28T08:19:33.180Z,4.10
2022-12-28T08:22:11.158Z,4.20
2022-12-28T08:24:39.169Z,4.30
2022-12-28T08:27:07.224Z,4.40
2022-12-28T08:29:41.809Z,4.50
2022-12-28T08:32:11.263Z,4.50
2022-12-28T08:34:39.251Z,4.60
2022-12-28T08:37:09.313Z,4.70
2022-12-28T08:39:41.698Z,4.70
2022-12-28T08:42:49.132Z,4.80
2022-12-28T08:45:24.813Z,5.00
2022-12-28T08:47:54.664Z,5.20
2022-12-28T08:50:31.412Z,5.30
2022-12-28T08:53:02.091Z,5.30
2022-12-28T08:55:30.070Z,5.50
2022-12-28T08:57:57.984Z,5.50
2022-12-28T09:00:25.969Z,5.50
2022-12-28T09:02:55.858Z,5.50
2022-12-28T09:05:23.958Z,5.40
2022-12-28T09:07:59.317Z,5.50
2022-12-28T09:10:27.581Z,5.50
2022-12-28T09:12:55.502Z,5.50
2022-12-28T09:15:24.281Z,5.50
2022-12-28T09:17:52.141Z,5.50
2022-12-28T09:20:21.598Z,5.50
2022-12-28T09:22:49.506Z,5.60
2022-12-28T09:25:17.540Z,5.60
2022-12-28T09:27:51.360Z,5.60
2022-12-28T09:30:22.638Z,5.50
2022-12-28T09:33:10.941Z,5.50
2022-12-28T09:35:40.310Z,5.60
2022-12-28T09:38:08.357Z,5.60
2022-12-28T09:40:37.156Z,5.70
2022-12-28T09:43:06.216Z,5.80
2022-12-28T09:45:43.521Z,5.80
2022-12-28T09:48:16.620Z,5.90
2022-12-28T09:50:48.065Z,6.00
2022-12-28T09:53:26.641Z,6.10
2022-12-28T09:56:00.939Z,6.20
2022-12-28T09:58:31.650Z,6.30
2022-12-28T10:01:02.003Z,6.30
2022-12-28T10:03:36.396Z,6.40
2022-12-28T10:06:11.173Z,6.60
2022-12-28T10:08:43.731Z,6.80
2022-12-28T10:11:17.717Z,6.90
2022-12-28T10:13:54.499Z,7.00
2022-12-28T10:16:25.207Z,7.00
2022-12-28T10:18:53.365Z,7.10
2022-12-28T10:21:31.999Z,7.10
2022-12-28T10:24:30.318Z,7.30
2022-12-28T10:26:49.851Z,7.30
2022-12-28T10:29:20.871Z,7.20
2022-12-28T10:31:59.636Z,7.20
2022-12-28T10:34:33.363Z,7.20
2022-12-28T10:37:14.787Z,7.30
2022-12-28T10:39:50.913Z,7.30
2022-12-28T10:42:24.704Z,7.30
2022-12-28T10:44:53.645Z,7.40
2022-12-28T10:47:30.422Z,7.40
2022-12-28T10:52:57.804Z,7.40
2022-12-28T10:55:33.439Z,7.30
2022-12-28T10:58:31.180Z,7.20
2022-12-28T11:01:02.733Z,7.10
2022-12-28T11:03:35.233Z,7.10
2022-12-28T11:06:24.231Z,7.00
2022-12-28T11:09:07.527Z,7.00
2022-12-28T11:11:35.758Z,7.10
2022-12-28T11:14:13.377Z,7.00
2022-12-28T11:16:42.725Z,6.80
2022-12-28T11:19:36.072Z,6.70
2022-12-28T11:22:03.961Z,6.60
2022-12-28T11:24:39.166Z,6.60
2022-12-28T11:27:11.547Z,6.50
2022-12-28T11:29:41.861Z,6.40
2022-12-28T11:32:19.307Z,6.40
2022-12-28T11:34:48.974Z,6.30
2022-12-28T11:37:17.407Z,6.40
2022-12-28T11:39:48.503Z,6.40
2022-12-28T11:42:50.117Z,6.60
2022-12-28T11:45:52.659Z,6.80
2022-12-28T11:48:46.280Z,7.20
2022-12-28T11:51:19.166Z,7.60
2022-12-28T11:53:52.272Z,7.90
2022-12-28T11:56:22.755Z,8.30
2022-12-28T11:59:24.480Z,8.60
2022-12-28T12:01:54.687Z,8.80
2022-12-28T12:04:46.230Z,9.00
2022-12-28T12:07:24.711Z,9.20
2022-12-28T12:10:34.968Z,9.30
2022-12-28T12:13:52.291Z,9.20
2022-12-28T12:16:28.422Z,9.20
2022-12-28T12:18:59.085Z,9.20
2022-12-28T12:21:33.446Z,8.90
2022-12-28T12:24:18.443Z,8.80
2022-12-28T12:26:50.569Z,8.60
2022-12-28T12:29:24.461Z,8.60
2022-12-28T12:32:03.014Z,8.40
2022-12-28T12:34:42.461Z,8.40
2022-12-28T12:37:48.275Z,8.40
2022-12-28T12:40:45.486Z,8.40
2022-12-28T12:43:34.230Z,8.40
2022-12-28T12:46:20.504Z,8.30
2022-12-28T12:49:07.812Z,8.30
2022-12-28T12:51:43.085Z,8.00
2022-12-28T12:54:28.455Z,7.90
2022-12-28T12:57:01.921Z,7.80
2022-12-28T12:59:42.435Z,7.70
2022-12-28T13:02:28.741Z,7.70
2022-12-28T13:05:01.315Z,7.60
2022-12-28T13:07:30.132Z,7.60
2022-12-28T13:10:00.633Z,7.60
2022-12-28T13:12:28.648Z,7.50
2022-12-28T13:15:00.764Z,7.70
2022-12-28T13:17:30.619Z,7.70
2022-12-28T13:20:19.571Z,7.70
2022-12-28T13:22:49.497Z,7.70
2022-12-28T13:25:28.765Z,7.70
2022-12-28T13:27:58.002Z,7.60
2022-12-28T13:30:26.785Z,7.70
2022-12-28T13:32:59.106Z,7.60
2022-12-28T13:35:29.326Z,7.50
2022-12-28T13:38:02.766Z,7.40
2022-12-28T13:40:32.411Z,7.30
2022-12-28T13:43:22.824Z,7.30
2022-12-28T13:45:54.213Z,7.20
2022-12-28T13:48:24.193Z,7.20
2022-12-28T13:50:53.384Z,7.10
2022-12-28T13:53:24.394Z,7.00
2022-12-28T13:55:54.744Z,7.00
2022-12-28T13:58:28.009Z,7.10
2022-12-28T14:00:59.652Z,7.20
2022-12-28T14:03:32.207Z,7.40
2022-12-28T14:06:03.983Z,7.50
2022-12-28T14:08:36.328Z,7.50
2022-12-28T14:11:06.050Z,7.50
2022-12-28T14:13:35.690Z,7.50
2022-12-28T14:16:05.770Z,7.30
2022-12-28T14:18:36.449Z,7.30
2022-12-28T14:21:06.337Z,7.30
2022-12-28T14:23:36.402Z,7.30
2022-12-28T14:26:07.477Z,7.30
2022-12-28T14:28:37.833Z,7.30
2022-12-28T14:31:08.063Z,7.30
2022-12-28T14:33:41.886Z,7.30
2022-12-28T14:36:21.868Z,7.30
2022-12-28T14:38:52.798Z,7.30
2022-12-28T14:41:24.686Z,7.20
2022-12-28T14:43:55.576Z,7.20
2022-12-28T14:46:32.292Z,7.20
2022-12-28T14:49:22.360Z,7.10
2022-12-28T14:51:50.320Z,7.10
2022-12-28T14:54:21.406Z,7.20
2022-12-28T14:56:53.641Z,7.20
2022-12-28T14:59:26.079Z,7.10
2022-12-28T15:01:54.116Z,7.10
2022-12-28T15:04:45.624Z,7.10
2022-12-28T15:07:13.478Z,7.10
2022-12-28T15:09:41.450Z,7.00
2022-12-28T15:12:11.686Z,7.00
2022-12-28T15:14:39.899Z,6.90
2022-12-28T15:17:08.558Z,6.90
2022-12-28T15:19:36.801Z,6.90
2022-12-28T15:22:06.287Z,6.90
2022-12-28T15:24:35.042Z,6.90
2022-12-28T15:27:03.127Z,6.90
2022-12-28T15:32:19.149Z,6.80
2022-12-28T15:34:47.103Z,6.80
2022-12-28T15:37:16.397Z,6.80
2022-12-28T15:39:44.423Z,6.80
2022-12-28T15:42:12.328Z,6.80
2022-12-28T15:44:40.299Z,6.80
2022-12-28T15:47:08.280Z,6.80
2022-12-28T15:49:36.239Z,6.90
2022-12-28T15:52:04.167Z,6.90
2022-12-28T15:54:33.683Z,6.90
2022-12-28T15:57:01.665Z,6.90
2022-12-28T15:59:29.749Z,6.80
2022-12-28T16:01:57.930Z,6.80
2022-12-28T16:04:25.944Z,6.80
2022-12-28T16:06:53.849Z,6.80
2022-12-28T16:09:22.023Z,6.80
2022-12-28T16:11:55.039Z,6.80
2022-12-28T16:14:23.657Z,6.80
2022-12-28T16:16:52.333Z,6.80
2022-12-28T16:19:20.848Z,6.80
2022-12-28T16:21:50.263Z,6.80
2022-12-28T16:24:18.776Z,6.80
2022-12-28T16:26:47.852Z,6.70
2022-12-28T16:29:17.133Z,6.70
2022-12-28T16:31:45.052Z,6.70
2022-12-28T16:34:16.427Z,6.80
2022-12-28T16:36:46.583Z,6.70
2022-12-28T16:39:17.143Z,6.70
2022-12-28T16:41:45.580Z,6.70
2022-12-28T16:44:16.065Z,6.70
2022-12-28T16:46:45.451Z,6.70
2022-12-28T16:49:13.560Z,6.70
2022-12-28T16:51:43.808Z,6.60
2022-12-28T16:54:15.560Z,6.70
2022-12-28T16:56:43.777Z,6.60
2022-12-28T16:59:15.184Z,6.60
2022-12-28T17:01:44.859Z,6.60
2022-12-28T17:04:13.646Z,6.60
2022-12-28T17:06:42.510Z,6.70
2022-12-28T17:09:10.495Z,6.70
2022-12-28T17:11:38.471Z,6.70
2022-12-28T17:14:08.093Z,6.70
2022-12-28T17:16:36.283Z,6.60
2022-12-28T17:19:06.057Z,6.60
2022-12-28T17:21:35.081Z,6.70
2022-12-28T17:24:03.466Z,6.60
2022-12-28T17:26:31.626Z,6.70
2022-12-28T17:29:00.098Z,6.70
2022-12-28T17:31:28.545Z,6.80
2022-12-28T17:33:58.613Z,6.70
2022-12-28T17:36:28.368Z,6.80
2022-12-28T17:38:56.265Z,6.80
2022-12-28T17:41:27.360Z,6.80
2022-12-28T17:43:56.697Z,6.80
2022-12-28T17:46:26.507Z,6.80
2022-12-28T17:48:55.154Z,6.70
2022-12-28T17:51:24.174Z,6.70
2022-12-28T17:53:56.190Z,6.70
2022-12-28T17:56:24.312Z,6.70
2022-12-28T17:58:55.743Z,6.60
2022-12-28T18:01:23.938Z,6.60
2022-12-28T18:03:51.956Z,6.60
2022-12-28T18:06:19.877Z,6.60
2022-12-28T18:08:47.868Z,6.60
2022-12-28T18:11:17.197Z,6.50
2022-12-28T18:13:47.356Z,6.50
2022-12-28T18:16:16.815Z,6.50
2022-12-28T18:18:44.838Z,6.50
2022-12-28T18:21:20.814Z,6.50
2022-12-28T18:23:50.908Z,6.50
2022-12-28T18:26:22.112Z,6.50
2022-12-28T18:28:50.225Z,6.50
2022-12-28T18:31:18.260Z,6.50
2022-12-28T18:33:46.429Z,6.50
2022-12-28T18:36:17.647Z,6.40
2022-12-28T18:38:47.288Z,6.50
2022-12-28T18:41:17.801Z,6.50
2022-12-28T18:43:47.571Z,6.50
2022-12-28T18:46:15.806Z,6.40
2022-12-28T18:48:44.298Z,6.50
2022-12-28T18:51:14.509Z,6.50
2022-12-28T18:53:42.574Z,6.50
2022-12-28T18:56:13.624Z,6.50
2022-12-28T18:58:42.866Z,6.50
2022-12-28T19:01:48.045Z,6.50
2022-12-28T19:04:03.469Z,6.50
2022-12-28T19:06:32.756Z,6.50
2022-12-28T19:09:01.352Z,6.50
2022-12-28T19:11:29.860Z,6.50
2022-12-28T19:13:58.272Z,6.50
2022-12-28T19:16:31.699Z,6.40
2022-12-28T19:19:00.419Z,6.40
2022-12-28T19:21:29.808Z,6.40
2022-12-28T19:23:59.273Z,6.50
2022-12-28T19:26:27.388Z,6.50
2022-12-28T19:28:55.376Z,6.50
2022-12-28T19:31:23.318Z,6.60
2022-12-28T19:33:52.735Z,6.50
2022-12-28T19:36:21.020Z,6.50
2022-12-28T19:38:49.199Z,6.50
2022-12-28T19:41:17.602Z,6.50
2022-12-28T19:43:45.853Z,6.60
2022-12-28T19:46:15.931Z,6.50
2022-12-28T19:48:44.430Z,6.60
2022-12-28T19:51:14.579Z,6.60
2022-12-28T19:53:42.911Z,6.60
2022-12-28T19:56:14.295Z,6.70
2022-12-28T19:58:43.595Z,6.60
2022-12-28T20:01:14.270Z,6.70
2022-12-28T20:03:43.285Z,6.70
2022-12-28T20:06:14.610Z,6.80
2022-12-28T20:08:46.501Z,6.80
2022-12-28T20:11:14.531Z,6.80
2022-12-28T20:13:43.017Z,6.90
2022-12-28T20:16:11.065Z,6.90
2022-12-28T20:18:39.208Z,7.00
2022-12-28T20:21:18.986Z,7.00
2022-12-28T20:23:49.337Z,7.00
2022-12-28T20:26:17.706Z,7.00
2022-12-28T20:28:45.684Z,7.00
2022-12-28T20:31:15.466Z,7.00
2022-12-28T20:33:44.584Z,6.90
2022-12-28T20:36:14.490Z,7.00
2022-12-28T20:38:42.623Z,6.90
2022-12-28T20:41:34.304Z,6.90
2022-12-28T20:44:04.001Z,6.80
2022-12-28T20:46:32.017Z,6.80
2022-12-28T20:49:00.414Z,6.70
2022-12-28T20:51:29.178Z,6.80
2022-12-28T20:53:57.165Z,6.80
2022-12-28T20:56:26.432Z,6.80
2022-12-28T20:58:54.431Z,6.70
2022-12-28T21:01:22.754Z,6.70
2022-12-28T21:03:50.915Z,6.70
2022-12-28T21:06:18.999Z,6.80
2022-12-28T21:08:46.991Z,6.70
2022-12-28T21:11:14.975Z,6.70
2022-12-28T21:13:45.217Z,6.80
2022-12-28T21:16:14.772Z,6.70
2022-12-28T21:18:42.894Z,6.70
2022-12-28T21:21:15.945Z,6.60
2022-12-28T21:23:44.057Z,6.60
2022-12-28T21:26:14.334Z,6.50
2022-12-28T21:28:42.720Z,6.40
2022-12-28T21:31:13.127Z,6.50
2022-12-28T21:33:41.409Z,6.40
2022-12-28T21:36:14.740Z,6.40
2022-12-28T21:38:44.178Z,6.40
2022-12-28T21:41:13.846Z,6.40
2022-12-28T21:43:42.362Z,6.40
2022-12-28T21:46:16.311Z,6.40
2022-12-28T21:48:44.285Z,6.30
2022-12-28T21:51:27.411Z,6.30
2022-12-28T21:53:55.898Z,6.30
2022-12-28T21:56:23.966Z,6.30
2022-12-28T21:58:52.291Z,6.30
2022-12-28T22:01:39.784Z,6.30
2022-12-28T22:04:25.370Z,6.20
2022-12-28T22:06:53.302Z,6.30
2022-12-28T22:09:38.797Z,6.20
2022-12-28T22:12:24.717Z,6.20
2022-12-28T22:15:13.588Z,6.10
2022-12-28T22:17:43.253Z,6.10
2022-12-28T22:20:13.186Z,6.10
2022-12-28T22:22:43.086Z,6.00
2022-12-28T22:25:13.638Z,5.90
2022-12-28T22:27:41.766Z,5.90
2022-12-28T22:30:11.156Z,5.90
2022-12-28T22:32:39.051Z,5.90
2022-12-28T22:35:09.711Z,6.00
2022-12-28T22:37:37.977Z,6.00
2022-12-28T22:40:07.174Z,6.00
2022-12-28T22:42:36.212Z,6.10
2022-12-28T22:45:04.277Z,6.10
2022-12-28T22:47:32.123Z,6.10
2022-12-28T22:50:00.097Z,6.20
2022-12-28T22:52:29.358Z,6.30
2022-12-28T22:54:57.332Z,6.30
2022-12-28T22:57:25.242Z,6.40
2022-12-28T22:59:53.158Z,6.40
2022-12-28T23:02:21.206Z,6.60
2022-12-28T23:04:49.309Z,6.60
2022-12-28T23:07:17.911Z,6.70
2022-12-28T23:09:47.372Z,6.80
2022-12-28T23:12:15.281Z,6.80
2022-12-28T23:15:00.791Z,6.90
2022-12-28T23:17:28.944Z,6.90
2022-12-28T23:20:14.313Z,7.00
2022-12-28T23:22:59.605Z,7.10
2022-12-28T23:25:46.217Z,7.20
2022-12-28T23:28:16.545Z,7.20
2022-12-28T23:30:46.562Z,7.30
2022-12-28T23:33:14.651Z,7.30
2022-12-28T23:35:42.674Z,7.30
2022-12-28T23:38:10.889Z,7.30
2022-12-28T23:40:40.833Z,7.30
2022-12-28T23:43:09.151Z,7.40
2022-12-28T23:45:37.264Z,7.40
2022-12-28T23:48:06.184Z,7.50
2022-12-28T23:50:34.197Z,7.50
2022-12-28T23:53:02.062Z,7.60
2022-12-28T23:55:30.046Z,7.60
2022-12-28T23:57:59.423Z,7.60
